createdAt,value
2023-04-26T00:00:18.067Z,27.50
2023-04-26T00:00:50.257Z,19.98
2023-04-26T00:01:27.681Z,24.75
2023-04-26T00:02:00.713Z,27.35
2023-04-26T00:02:36.337Z,23.27
2023-04-26T00:03:13.455Z,22.17
2023-04-26T00:03:46.116Z,16.38
2023-04-26T00:04:18.606Z,27.40
2023-04-26T00:04:56.492Z,18.58
2023-04-26T00:05:29.909Z,19.73
2023-04-26T00:06:05.776Z,26.80
2023-04-26T00:06:40.759Z,14.10
2023-04-26T00:07:14.142Z,28.77
2023-04-26T00:07:46.822Z,11.13
2023-04-26T00:08:21.568Z,34.90
2023-04-26T00:08:54.055Z,23.02
2023-04-26T00:09:26.825Z,9.70
2023-04-26T00:09:59.066Z,37.47
2023-04-26T00:10:34.451Z,27.80
2023-04-26T00:11:06.897Z,21.30
2023-04-26T00:11:39.105Z,13.40
2023-04-26T00:12:12.277Z,34.75
2023-04-26T00:12:47.128Z,24.90
2023-04-26T00:13:19.386Z,29.75
2023-04-26T00:13:51.630Z,29.92
2023-04-26T00:14:26.452Z,22.55
2023-04-26T00:14:58.760Z,20.48
2023-04-26T00:15:33.690Z,18.20
2023-04-26T00:16:06.916Z,54.63
2023-04-26T00:16:39.592Z,20.95
2023-04-26T00:17:14.654Z,31.80
2023-04-26T00:17:50.931Z,32.22
2023-04-26T00:18:23.128Z,20.70
2023-04-26T00:18:56.730Z,13.60
2023-04-26T00:19:32.454Z,17.05
2023-04-26T00:20:09.360Z,22.58
2023-04-26T00:20:41.777Z,22.77
2023-04-26T00:21:16.553Z,29.58
2023-04-26T00:21:48.813Z,21.50
2023-04-26T00:22:20.997Z,18.65
2023-04-26T00:22:56.058Z,32.67
2023-04-26T00:23:28.227Z,15.55
2023-04-26T00:24:00.546Z,19.27
2023-04-26T00:24:35.543Z,21.38
2023-04-26T00:25:08.574Z,26.77
2023-04-26T00:25:40.893Z,13.38
2023-04-26T00:26:15.687Z,28.23
2023-04-26T00:26:47.851Z,23.95
2023-04-26T00:27:20.185Z,16.48
2023-04-26T00:27:55.424Z,21.63
2023-04-26T00:28:29.366Z,20.00
2023-04-26T00:29:02.233Z,24.23
2023-04-26T00:29:34.942Z,18.95
2023-04-26T00:30:11.424Z,26.33
2023-04-26T00:30:47.926Z,24.05
2023-04-26T00:31:20.230Z,24.58
2023-04-26T00:31:55.154Z,22.13
2023-04-26T00:32:28.114Z,9.23
2023-04-26T00:33:03.025Z,23.35
2023-04-26T00:33:37.859Z,18.52
2023-04-26T00:34:10.057Z,57.30
2023-04-26T00:34:42.297Z,20.98
2023-04-26T00:35:17.054Z,32.53
2023-04-26T00:35:49.412Z,12.13
2023-04-26T00:36:21.596Z,18.55
2023-04-26T00:36:56.759Z,23.65
2023-04-26T00:37:28.920Z,24.58
2023-04-26T00:38:01.164Z,18.98
2023-04-26T00:38:35.969Z,19.00
2023-04-26T00:39:09.006Z,21.75
2023-04-26T00:39:41.241Z,14.13
2023-04-26T00:40:17.437Z,30.52
2023-04-26T00:40:49.657Z,16.52
2023-04-26T00:41:22.783Z,12.57
2023-04-26T00:41:57.774Z,18.45
2023-04-26T00:42:30.140Z,20.55
2023-04-26T00:43:03.604Z,15.05
2023-04-26T00:43:38.627Z,33.15
2023-04-26T00:44:11.098Z,32.22
2023-04-26T00:44:43.361Z,21.40
2023-04-26T00:45:18.346Z,31.73
2023-04-26T00:45:50.647Z,28.38
2023-04-26T00:46:23.396Z,20.38
2023-04-26T00:46:59.239Z,19.92
2023-04-26T00:47:31.621Z,17.88
2023-04-26T00:48:06.943Z,33.88
2023-04-26T00:48:41.915Z,16.23
2023-04-26T00:49:17.311Z,31.55
2023-04-26T00:49:49.726Z,24.65
2023-04-26T00:50:24.655Z,18.75
2023-04-26T00:50:57.168Z,14.38
2023-04-26T00:51:30.036Z,22.45
2023-04-26T00:52:05.583Z,21.73
2023-04-26T00:52:39.138Z,21.15
2023-04-26T00:53:14.732Z,30.75
2023-04-26T00:53:49.619Z,17.98
2023-04-26T00:54:22.634Z,14.90
2023-04-26T00:54:55.180Z,21.55
2023-04-26T00:55:30.270Z,10.98
2023-04-26T00:56:03.594Z,24.30
2023-04-26T00:56:37.418Z,17.58
2023-04-26T00:57:09.974Z,22.90
2023-04-26T00:57:44.788Z,14.85
2023-04-26T00:58:18.587Z,30.52
2023-04-26T00:58:51.431Z,27.70
2023-04-26T00:59:26.697Z,23.50
2023-04-26T00:59:59.024Z,24.58
2023-04-26T01:00:31.602Z,24.40
2023-04-26T01:01:07.810Z,22.10
2023-04-26T01:01:42.840Z,19.92
2023-04-26T01:02:15.380Z,40.83
2023-04-26T01:02:50.338Z,26.02
2023-04-26T01:03:25.597Z,16.35
2023-04-26T01:03:58.227Z,32.22
2023-04-26T01:04:33.729Z,22.45
2023-04-26T01:05:06.781Z,33.15
2023-04-26T01:05:39.228Z,19.27
2023-04-26T01:06:14.399Z,35.22
2023-04-26T01:06:47.582Z,17.58
2023-04-26T01:07:19.905Z,22.02
2023-04-26T01:07:55.244Z,28.17
2023-04-26T01:08:29.646Z,24.48
2023-04-26T01:09:04.367Z,24.73
2023-04-26T01:09:39.192Z,14.70
2023-04-26T01:10:12.212Z,40.70
2023-04-26T01:10:44.988Z,25.67
2023-04-26T01:11:22.743Z,29.33
2023-04-26T01:11:58.573Z,29.55
2023-04-26T01:12:30.909Z,24.27
2023-04-26T01:13:06.364Z,29.45
2023-04-26T01:13:39.116Z,19.75
2023-04-26T01:14:11.908Z,30.65
2023-04-26T01:14:47.788Z,17.15
2023-04-26T01:15:21.344Z,21.15
2023-04-26T01:15:56.482Z,26.48
2023-04-26T01:16:31.772Z,26.25
2023-04-26T01:17:05.858Z,29.23
2023-04-26T01:17:38.142Z,17.52
2023-04-26T01:18:14.120Z,36.00
2023-04-26T01:18:54.374Z,17.02
2023-04-26T01:20:01.403Z,20.52
2023-04-26T01:20:35.024Z,16.92
2023-04-26T01:21:07.387Z,36.13
2023-04-26T01:21:43.106Z,19.52
2023-04-26T01:22:15.403Z,20.30
2023-04-26T01:22:50.821Z,28.60
2023-04-26T01:23:25.640Z,18.20
2023-04-26T01:23:57.867Z,22.80
2023-04-26T01:24:30.390Z,29.83
2023-04-26T01:25:09.052Z,20.52
2023-04-26T01:25:41.755Z,15.00
2023-04-26T01:26:13.941Z,28.25
2023-04-26T01:26:48.965Z,14.50
2023-04-26T01:27:21.665Z,22.40
2023-04-26T01:27:53.950Z,24.23
2023-04-26T01:28:32.755Z,20.25
2023-04-26T01:29:14.308Z,26.15
2023-04-26T01:29:47.799Z,17.90
2023-04-26T01:30:22.644Z,22.52
2023-04-26T01:30:54.863Z,21.13
2023-04-26T01:31:27.112Z,25.33
2023-04-26T01:31:59.355Z,13.30
2023-04-26T01:32:36.524Z,22.27
2023-04-26T01:33:08.730Z,22.90
2023-04-26T01:33:40.970Z,22.65
2023-04-26T01:34:13.689Z,31.05
2023-04-26T01:34:48.536Z,18.48
2023-04-26T01:35:21.104Z,21.10
2023-04-26T01:35:53.596Z,20.92
2023-04-26T01:36:25.948Z,13.25
2023-04-26T01:37:00.821Z,22.88
2023-04-26T01:37:33.694Z,23.55
2023-04-26T01:38:08.748Z,23.27
2023-04-26T01:38:41.020Z,24.90
2023-04-26T01:39:16.032Z,27.50
2023-04-26T01:39:48.315Z,24.20
2023-04-26T01:40:20.524Z,13.40
2023-04-26T01:40:55.372Z,22.67
2023-04-26T01:41:27.582Z,20.95
2023-04-26T01:41:59.798Z,21.23
2023-04-26T01:42:34.622Z,23.27
2023-04-26T01:43:07.333Z,22.40
2023-04-26T01:43:39.597Z,20.23
2023-04-26T01:44:14.354Z,25.95
2023-04-26T01:44:46.705Z,25.45
2023-04-26T01:45:18.919Z,27.35
2023-04-26T01:46:12.303Z,28.40
2023-04-26T01:46:45.732Z,22.08
2023-04-26T01:47:18.274Z,23.77
2023-04-26T01:47:53.492Z,17.65
2023-04-26T01:48:25.809Z,12.18
2023-04-26T01:48:58.189Z,23.27
2023-04-26T01:49:33.162Z,14.40
2023-04-26T01:50:07.142Z,34.40
2023-04-26T01:50:39.503Z,26.45
2023-04-26T01:51:14.436Z,21.23
2023-04-26T01:51:46.650Z,20.60
2023-04-26T01:52:18.872Z,19.05
2023-04-26T01:52:54.044Z,36.72
2023-04-26T01:53:28.896Z,18.05
2023-04-26T01:54:01.106Z,32.25
2023-04-26T01:54:35.884Z,24.92
2023-04-26T01:55:09.256Z,29.10
2023-04-26T01:55:41.438Z,27.70
2023-04-26T01:56:18.434Z,27.85
2023-04-26T01:56:50.695Z,26.27
2023-04-26T01:57:22.957Z,29.52
2023-04-26T01:57:58.848Z,30.40
2023-04-26T01:58:31.136Z,30.25
2023-04-26T01:59:03.377Z,43.13
2023-04-26T01:59:38.815Z,20.27
2023-04-26T02:00:11.931Z,29.02
2023-04-26T02:00:46.975Z,44.78
2023-04-26T02:01:21.763Z,29.98
2023-04-26T02:01:54.071Z,16.73
2023-04-26T02:02:26.735Z,23.40
2023-04-26T02:03:01.627Z,24.02
2023-04-26T02:03:35.674Z,28.95
2023-04-26T02:04:08.111Z,42.95
2023-04-26T02:04:42.959Z,25.67
2023-04-26T02:05:15.171Z,31.27
2023-04-26T02:05:47.488Z,20.65
2023-04-26T02:06:20.092Z,26.88
2023-04-26T02:06:54.852Z,30.55
2023-04-26T02:07:29.479Z,26.52
2023-04-26T02:08:01.853Z,35.28
2023-04-26T02:08:36.793Z,22.50
2023-04-26T02:09:11.911Z,28.85
2023-04-26T02:09:46.746Z,22.50
2023-04-26T02:10:19.035Z,20.92
2023-04-26T02:10:51.261Z,35.65
2023-04-26T02:11:27.183Z,14.93
2023-04-26T02:11:59.434Z,22.08
2023-04-26T02:12:32.289Z,14.43
2023-04-26T02:13:07.470Z,26.60
2023-04-26T02:13:39.852Z,20.02
2023-04-26T02:14:12.218Z,27.80
2023-04-26T02:14:47.093Z,27.98
2023-04-26T02:15:19.398Z,26.67
2023-04-26T02:15:51.841Z,17.80
2023-04-26T02:16:27.362Z,26.73
2023-04-26T02:16:59.717Z,18.65
2023-04-26T02:17:32.145Z,44.00
2023-04-26T02:18:04.447Z,17.27
2023-04-26T02:18:39.307Z,20.98
2023-04-26T02:19:11.544Z,33.20
2023-04-26T02:19:46.419Z,22.52
2023-04-26T02:20:21.817Z,27.38
2023-04-26T02:20:54.066Z,26.92
2023-04-26T02:21:27.155Z,21.63
2023-04-26T02:22:01.993Z,26.55
2023-04-26T02:22:34.187Z,24.80
2023-04-26T02:23:06.471Z,33.20
2023-04-26T02:23:43.841Z,15.75
2023-04-26T02:24:16.673Z,35.78
2023-04-26T02:24:50.339Z,25.80
2023-04-26T02:25:25.091Z,26.50
2023-04-26T02:25:59.294Z,18.77
2023-04-26T02:26:32.844Z,41.65
2023-04-26T02:27:08.934Z,27.98
2023-04-26T02:27:41.330Z,25.75
2023-04-26T02:28:13.642Z,35.15
2023-04-26T02:28:48.504Z,18.60
2023-04-26T02:29:29.440Z,17.35
2023-04-26T02:30:12.670Z,46.20
2023-04-26T02:30:45.089Z,28.98
2023-04-26T02:31:17.398Z,26.70
2023-04-26T02:31:52.243Z,29.67
2023-04-26T02:32:24.666Z,24.63
2023-04-26T02:32:57.411Z,18.25
2023-04-26T02:33:32.259Z,23.83
2023-04-26T02:34:04.591Z,44.97
2023-04-26T02:34:36.836Z,21.90
2023-04-26T02:35:12.425Z,37.47
2023-04-26T02:35:44.630Z,27.27
2023-04-26T02:36:16.875Z,30.55
2023-04-26T02:36:49.141Z,19.02
2023-04-26T02:37:24.560Z,24.10
2023-04-26T02:37:56.841Z,21.67
2023-04-26T02:38:30.189Z,19.13
2023-04-26T02:39:09.074Z,33.13
2023-04-26T02:39:41.653Z,19.20
2023-04-26T02:40:13.929Z,27.80
2023-04-26T02:40:48.980Z,29.10
2023-04-26T02:41:23.710Z,34.53
2023-04-26T02:41:56.075Z,13.30
2023-04-26T02:42:31.105Z,14.63
2023-04-26T02:43:03.710Z,21.38
2023-04-26T02:43:36.010Z,22.13
2023-04-26T02:44:11.588Z,36.60
2023-04-26T02:44:43.879Z,18.48
2023-04-26T02:45:16.364Z,45.70
2023-04-26T02:45:48.566Z,24.83
2023-04-26T02:46:23.354Z,23.05
2023-04-26T02:46:55.691Z,25.48
2023-04-26T02:47:28.245Z,26.40
2023-04-26T02:48:03.394Z,15.73
2023-04-26T02:48:35.638Z,19.70
2023-04-26T02:49:07.890Z,38.08
2023-04-26T02:49:42.692Z,31.45
2023-04-26T02:50:15.200Z,45.22
2023-04-26T02:50:48.051Z,33.25
2023-04-26T02:51:21.655Z,24.10
2023-04-26T02:51:56.671Z,25.45
2023-04-26T02:52:29.230Z,10.00
2023-04-26T02:53:01.751Z,24.63
2023-04-26T02:53:37.453Z,38.70
2023-04-26T02:54:12.251Z,56.72
2023-04-26T02:54:44.483Z,26.10
2023-04-26T02:55:19.341Z,39.55
2023-04-26T02:55:51.622Z,31.95
2023-04-26T02:56:23.970Z,32.90
2023-04-26T02:56:59.061Z,24.38
2023-04-26T02:57:32.922Z,29.00
2023-04-26T02:58:05.214Z,33.83
2023-04-26T02:58:40.090Z,35.22
2023-04-26T02:59:12.490Z,33.50
2023-04-26T02:59:44.737Z,27.48
2023-04-26T03:00:20.769Z,36.90
2023-04-26T03:00:54.814Z,34.25
2023-04-26T03:01:27.419Z,16.13
2023-04-26T03:02:02.478Z,24.42
2023-04-26T03:02:34.888Z,22.48
2023-04-26T03:03:07.823Z,29.27
2023-04-26T03:03:42.921Z,21.55
2023-04-26T03:04:16.343Z,36.85
2023-04-26T03:04:50.560Z,18.48
2023-04-26T03:05:25.933Z,35.05
2023-04-26T03:05:58.393Z,22.25
2023-04-26T03:06:33.610Z,24.42
2023-04-26T03:07:05.954Z,28.33
2023-04-26T03:07:38.816Z,20.75
2023-04-26T03:08:13.581Z,39.85
2023-04-26T03:08:45.820Z,42.35
2023-04-26T03:09:20.754Z,21.70
2023-04-26T03:09:55.664Z,74.53
2023-04-26T03:10:27.971Z,31.40
2023-04-26T03:11:00.564Z,31.48
2023-04-26T03:11:35.703Z,25.10
2023-04-26T03:12:08.620Z,44.45
2023-04-26T03:12:42.658Z,26.48
2023-04-26T03:13:17.474Z,28.73
2023-04-26T03:13:50.154Z,24.95
2023-04-26T03:14:22.481Z,24.35
2023-04-26T03:14:57.937Z,22.67
2023-04-26T03:15:30.959Z,22.73
2023-04-26T03:16:03.345Z,26.42
2023-04-26T03:16:44.493Z,22.02
2023-04-26T03:17:16.813Z,65.10
2023-04-26T03:17:49.772Z,52.17
2023-04-26T03:18:24.729Z,32.85
2023-04-26T03:18:57.324Z,48.20
2023-04-26T03:19:30.278Z,37.10
2023-04-26T03:20:05.839Z,37.75
2023-04-26T03:20:38.829Z,24.50
2023-04-26T03:21:11.160Z,43.80
2023-04-26T03:21:46.104Z,41.95
2023-04-26T03:22:18.477Z,37.80
2023-04-26T03:22:50.675Z,25.77
2023-04-26T03:23:26.135Z,24.40
2023-04-26T03:23:59.136Z,44.08
2023-04-26T03:24:34.119Z,50.83
2023-04-26T03:25:10.605Z,38.90
2023-04-26T03:25:42.863Z,23.95
2023-04-26T03:26:15.093Z,34.13
2023-04-26T03:26:49.861Z,21.83
2023-04-26T03:27:22.676Z,22.25
2023-04-26T03:27:56.824Z,21.63
2023-04-26T03:28:31.605Z,23.45
2023-04-26T03:29:05.272Z,31.52
2023-04-26T03:29:37.794Z,56.22
2023-04-26T03:30:10.976Z,83.55
2023-04-26T03:30:47.102Z,21.88
2023-04-26T03:31:21.907Z,32.78
2023-04-26T03:31:54.197Z,41.03
2023-04-26T03:32:29.104Z,51.10
2023-04-26T03:33:01.448Z,70.80
2023-04-26T03:33:33.690Z,30.08
2023-04-26T03:34:08.976Z,56.65
2023-04-26T03:34:41.466Z,20.67
2023-04-26T03:35:13.750Z,58.20
2023-04-26T03:35:48.598Z,28.50
2023-04-26T03:36:23.396Z,46.83
2023-04-26T03:36:56.047Z,37.35
2023-04-26T03:37:28.276Z,41.92
2023-04-26T03:38:09.867Z,27.67
2023-04-26T03:38:43.059Z,43.65
2023-04-26T03:39:17.138Z,79.70
2023-04-26T03:39:55.086Z,51.47
2023-04-26T03:40:28.571Z,48.92
2023-04-26T03:41:01.437Z,76.25
2023-04-26T03:41:39.641Z,60.38
2023-04-26T03:42:12.905Z,52.85
2023-04-26T03:42:45.198Z,69.82
2023-04-26T03:43:19.984Z,47.03
2023-04-26T03:43:52.148Z,42.63
2023-04-26T03:44:24.425Z,44.53
2023-04-26T03:44:59.231Z,41.47
2023-04-26T03:45:31.466Z,40.97
2023-04-26T03:46:03.872Z,52.38
2023-04-26T03:46:38.732Z,49.22
2023-04-26T03:47:11.284Z,39.22
2023-04-26T03:47:43.532Z,52.90
2023-04-26T03:48:19.353Z,47.40
2023-04-26T03:48:52.046Z,72.57
2023-04-26T03:49:24.591Z,52.58
2023-04-26T03:49:59.596Z,51.83
2023-04-26T03:50:31.834Z,56.55
2023-04-26T03:51:04.365Z,57.65
2023-04-26T03:51:39.225Z,40.95
2023-04-26T03:52:11.412Z,47.90
2023-04-26T03:52:43.786Z,55.65
2023-04-26T03:53:18.635Z,68.03
2023-04-26T03:53:51.335Z,59.88
2023-04-26T03:54:23.664Z,32.15
2023-04-26T03:55:01.184Z,29.70
2023-04-26T03:55:33.378Z,70.65
2023-04-26T03:56:05.987Z,50.53
2023-04-26T03:56:42.142Z,48.50
2023-04-26T03:57:14.469Z,55.83
2023-04-26T03:57:47.103Z,34.95
2023-04-26T03:58:22.620Z,34.38
2023-04-26T03:58:54.804Z,30.98
2023-04-26T03:59:27.058Z,33.55
2023-04-26T04:00:01.991Z,27.65
2023-04-26T04:00:37.694Z,26.60
2023-04-26T04:01:10.023Z,38.30
2023-04-26T04:01:45.088Z,45.50
2023-04-26T04:02:17.361Z,48.85
2023-04-26T04:02:49.868Z,37.58
2023-04-26T04:03:32.013Z,36.63
2023-04-26T04:04:04.970Z,48.55
2023-04-26T04:04:37.525Z,39.88
2023-04-26T04:05:13.182Z,29.27
2023-04-26T04:05:45.652Z,32.30
2023-04-26T04:06:18.803Z,24.48
2023-04-26T04:06:53.681Z,48.70
2023-04-26T04:07:25.930Z,30.48
2023-04-26T04:07:58.432Z,37.40
2023-04-26T04:08:34.084Z,42.63
2023-04-26T04:09:06.334Z,61.38
2023-04-26T04:09:38.638Z,32.15
2023-04-26T04:10:16.712Z,32.33
2023-04-26T04:10:50.866Z,27.30
2023-04-26T04:11:23.407Z,61.88
2023-04-26T04:11:58.893Z,23.15
2023-04-26T04:12:32.298Z,45.47
2023-04-26T04:13:04.571Z,40.45
2023-04-26T04:13:39.505Z,31.73
2023-04-26T04:14:11.710Z,40.42
2023-04-26T04:14:43.999Z,48.60
2023-04-26T04:15:19.667Z,49.00
2023-04-26T04:15:53.762Z,67.35
2023-04-26T04:16:26.393Z,58.13
2023-04-26T04:17:01.550Z,46.38
2023-04-26T04:17:38.342Z,72.22
2023-04-26T04:18:11.203Z,45.85
2023-04-26T04:18:46.737Z,49.28
2023-04-26T04:19:19.026Z,59.33
2023-04-26T04:19:52.539Z,45.75
2023-04-26T04:20:27.406Z,60.22
2023-04-26T04:21:01.874Z,51.08
2023-04-26T04:21:36.681Z,49.63
2023-04-26T04:22:08.918Z,43.15
2023-04-26T04:22:41.627Z,37.72
2023-04-26T04:23:16.642Z,42.88
2023-04-26T04:23:48.925Z,78.53
2023-04-26T04:24:21.122Z,73.72
2023-04-26T04:24:56.050Z,62.35
2023-04-26T04:25:31.415Z,57.20
2023-04-26T04:26:06.704Z,87.40
2023-04-26T04:26:42.085Z,68.85
2023-04-26T04:27:15.218Z,61.38
2023-04-26T04:27:48.874Z,84.70
2023-04-26T04:28:24.113Z,57.28
2023-04-26T04:28:57.814Z,38.17
2023-04-26T04:29:31.042Z,67.50
2023-04-26T04:30:07.730Z,45.20
2023-04-26T04:30:40.388Z,64.97
2023-04-26T04:31:13.251Z,50.10
2023-04-26T04:31:48.811Z,50.40
2023-04-26T04:32:23.929Z,25.58
2023-04-26T04:32:59.497Z,69.72
2023-04-26T04:33:34.599Z,52.15
2023-04-26T04:34:06.803Z,47.40
2023-04-26T04:34:40.440Z,39.03
2023-04-26T04:35:16.205Z,42.60
2023-04-26T04:35:48.416Z,67.53
2023-04-26T04:36:20.596Z,55.83
2023-04-26T04:36:55.561Z,49.78
2023-04-26T04:37:29.002Z,64.63
2023-04-26T04:38:01.990Z,72.75
2023-04-26T04:38:37.518Z,76.50
2023-04-26T04:39:16.249Z,68.65
2023-04-26T04:39:52.499Z,50.40
2023-04-26T04:40:25.782Z,91.93
2023-04-26T04:41:00.643Z,64.68
2023-04-26T04:41:35.560Z,71.00
2023-04-26T04:42:07.843Z,95.40
2023-04-26T04:42:40.374Z,66.95
2023-04-26T04:43:17.062Z,92.38
2023-04-26T04:43:49.539Z,74.00
2023-04-26T04:44:24.154Z,69.07
2023-04-26T04:45:00.129Z,61.08
2023-04-26T04:45:33.526Z,91.72
2023-04-26T04:46:06.851Z,65.53
2023-04-26T04:46:41.859Z,57.28
2023-04-26T04:47:14.263Z,54.75
2023-04-26T04:47:46.736Z,41.30
2023-04-26T04:48:22.106Z,62.75
2023-04-26T04:48:54.878Z,48.22
2023-04-26T04:49:27.268Z,56.17
2023-04-26T04:50:02.233Z,52.67
2023-04-26T04:50:34.551Z,43.40
2023-04-26T04:51:06.976Z,57.58
2023-04-26T04:51:43.277Z,66.72
2023-04-26T04:52:18.639Z,61.38
2023-04-26T04:52:52.382Z,92.38
2023-04-26T04:53:27.642Z,42.20
2023-04-26T04:54:00.119Z,57.30
2023-04-26T04:54:32.695Z,39.05
2023-04-26T04:55:08.384Z,52.83
2023-04-26T04:55:43.522Z,57.90
2023-04-26T04:56:20.560Z,57.78
2023-04-26T04:56:55.383Z,49.42
2023-04-26T04:57:27.949Z,33.10
2023-04-26T04:58:00.216Z,74.30
2023-04-26T04:58:35.043Z,48.03
2023-04-26T04:59:08.023Z,65.85
2023-04-26T04:59:40.839Z,62.30
2023-04-26T05:00:17.048Z,106.63
2023-04-26T05:00:56.983Z,59.92
2023-04-26T05:01:32.907Z,82.82
2023-04-26T05:02:11.129Z,60.95
2023-04-26T05:02:44.160Z,66.88
2023-04-26T05:03:16.583Z,46.03
2023-04-26T05:03:51.903Z,37.97
2023-04-26T05:04:24.787Z,56.63
2023-04-26T05:05:01.614Z,66.65
2023-04-26T05:05:34.309Z,33.75
2023-04-26T05:06:07.041Z,34.10
2023-04-26T05:06:42.677Z,49.30
2023-04-26T05:07:15.976Z,37.58
2023-04-26T05:07:48.754Z,43.75
2023-04-26T05:08:23.945Z,54.42
2023-04-26T05:08:56.890Z,158.30
2023-04-26T05:09:30.109Z,68.70
2023-04-26T05:10:05.949Z,75.07
2023-04-26T05:10:38.431Z,71.13
2023-04-26T05:11:11.583Z,73.43
2023-04-26T05:11:49.012Z,45.20
2023-04-26T05:12:22.006Z,51.65
2023-04-26T05:12:57.027Z,40.88
2023-04-26T05:13:29.276Z,41.58
2023-04-26T05:14:01.978Z,61.10
2023-04-26T05:14:37.307Z,57.60
2023-04-26T05:15:10.296Z,55.58
2023-04-26T05:15:42.558Z,63.80
2023-04-26T05:16:17.358Z,61.88
2023-04-26T05:16:49.677Z,67.93
2023-04-26T05:17:21.984Z,58.25
2023-04-26T05:17:57.922Z,67.95
2023-04-26T05:18:30.795Z,52.15
2023-04-26T05:19:02.986Z,47.13
2023-04-26T05:19:37.967Z,34.67
2023-04-26T05:20:11.406Z,47.88
2023-04-26T05:20:46.513Z,58.08
2023-04-26T05:21:18.775Z,90.03
2023-04-26T05:21:52.932Z,49.65
2023-04-26T05:22:28.797Z,71.90
2023-04-26T05:23:01.029Z,73.35
2023-04-26T05:23:34.597Z,52.67
2023-04-26T05:24:10.238Z,45.42
2023-04-26T05:24:42.580Z,39.22
2023-04-26T05:25:14.978Z,65.05
2023-04-26T05:25:51.249Z,84.97
2023-04-26T05:26:45.663Z,57.08
2023-04-26T05:27:38.047Z,60.17
2023-04-26T05:28:20.778Z,66.53
2023-04-26T05:29:14.013Z,94.32
2023-04-26T05:30:06.008Z,89.72
2023-04-26T05:30:53.401Z,95.90
2023-04-26T05:31:38.827Z,76.28
2023-04-26T05:32:13.824Z,113.38
2023-04-26T05:32:46.206Z,63.85
2023-04-26T05:33:41.438Z,74.05
2023-04-26T05:34:32.486Z,66.30
2023-04-26T05:35:09.089Z,66.25
2023-04-26T05:35:41.522Z,93.18
2023-04-26T05:36:13.818Z,63.50
2023-04-26T05:36:49.108Z,58.53
2023-04-26T05:37:21.303Z,70.05
2023-04-26T05:37:53.498Z,94.90
2023-04-26T05:38:30.583Z,76.35
2023-04-26T05:39:02.811Z,100.25
2023-04-26T05:39:35.043Z,108.53
2023-04-26T05:40:12.590Z,90.57
2023-04-26T05:40:45.593Z,80.03
2023-04-26T05:41:17.899Z,117.20
2023-04-26T05:41:55.276Z,87.68
2023-04-26T05:42:27.678Z,95.97
2023-04-26T05:42:59.934Z,76.88
2023-04-26T05:43:35.706Z,90.32
2023-04-26T05:44:08.288Z,86.45
2023-04-26T05:44:41.052Z,129.32
2023-04-26T05:45:15.902Z,145.75
2023-04-26T05:45:52.184Z,109.80
2023-04-26T05:46:24.805Z,103.05
2023-04-26T05:46:59.694Z,97.22
2023-04-26T05:47:32.587Z,105.32
2023-04-26T05:48:05.189Z,71.78
2023-04-26T05:48:40.090Z,81.25
2023-04-26T05:49:12.321Z,72.78
2023-04-26T05:49:45.157Z,116.25
2023-04-26T05:50:20.134Z,97.35
2023-04-26T05:50:52.990Z,109.30
2023-04-26T05:51:25.640Z,78.75
2023-04-26T05:52:03.776Z,62.83
2023-04-26T05:52:36.154Z,69.78
2023-04-26T05:53:08.604Z,110.47
2023-04-26T05:53:43.524Z,93.97
2023-04-26T05:54:15.777Z,99.70
2023-04-26T05:54:48.114Z,78.60
2023-04-26T05:55:23.523Z,121.18
2023-04-26T05:55:55.819Z,72.97
2023-04-26T05:56:28.310Z,110.30
2023-04-26T05:57:06.870Z,106.60
2023-04-26T05:57:39.186Z,63.58
2023-04-26T05:58:15.174Z,102.10
2023-04-26T05:58:47.959Z,53.05
2023-04-26T05:59:21.317Z,57.83
2023-04-26T05:59:56.260Z,54.45
2023-04-26T06:00:28.577Z,102.97
2023-04-26T06:01:00.928Z,73.07
2023-04-26T06:01:35.973Z,76.43
2023-04-26T06:02:08.792Z,82.95
2023-04-26T06:02:41.224Z,77.80
2023-04-26T06:03:21.494Z,50.15
2023-04-26T06:03:57.832Z,99.03
2023-04-26T06:04:36.137Z,63.30
2023-04-26T06:05:13.586Z,87.68
2023-04-26T06:05:49.491Z,71.55
2023-04-26T06:06:21.770Z,88.95
2023-04-26T06:06:56.951Z,119.68
2023-04-26T06:07:29.303Z,68.68
2023-04-26T06:08:02.011Z,71.32
2023-04-26T06:08:37.338Z,117.07
2023-04-26T06:09:10.044Z,97.13
2023-04-26T06:09:44.940Z,66.85
2023-04-26T06:10:17.136Z,47.17
2023-04-26T06:10:51.964Z,139.38
2023-04-26T06:11:24.167Z,81.32
2023-04-26T06:11:58.948Z,108.90
2023-04-26T06:12:33.864Z,77.95
2023-04-26T06:13:06.544Z,71.00
2023-04-26T06:13:44.138Z,75.05
2023-04-26T06:14:29.256Z,59.15
2023-04-26T06:15:07.666Z,97.78
2023-04-26T06:15:41.622Z,91.05
2023-04-26T06:16:16.598Z,90.40
2023-04-26T06:16:49.477Z,82.43
2023-04-26T06:17:21.770Z,76.20
2023-04-26T06:17:56.867Z,86.03
2023-04-26T06:18:29.141Z,72.72
2023-04-26T06:19:01.793Z,106.82
2023-04-26T06:19:37.288Z,95.88
2023-04-26T06:20:10.245Z,38.00
2023-04-26T06:20:43.141Z,73.40
2023-04-26T06:21:18.057Z,88.82
2023-04-26T06:21:52.308Z,98.10
2023-04-26T06:22:24.584Z,78.05
2023-04-26T06:22:59.353Z,64.72
2023-04-26T06:23:31.689Z,71.53
2023-04-26T06:24:04.293Z,80.68
2023-04-26T06:24:39.077Z,69.60
2023-04-26T06:25:11.368Z,86.30
2023-04-26T06:25:45.844Z,76.63
2023-04-26T06:26:21.640Z,97.57
2023-04-26T06:26:54.653Z,99.70
2023-04-26T06:27:26.834Z,82.35
2023-04-26T06:28:05.019Z,46.40
2023-04-26T06:28:37.269Z,60.63
2023-04-26T06:29:09.562Z,68.68
2023-04-26T06:29:45.385Z,56.42
2023-04-26T06:30:17.698Z,55.20
2023-04-26T06:30:55.356Z,53.13
2023-04-26T06:31:27.678Z,62.35
2023-04-26T06:32:04.176Z,95.20
2023-04-26T06:32:36.746Z,65.13
2023-04-26T06:33:11.750Z,93.25
2023-04-26T06:33:45.282Z,83.22
2023-04-26T06:34:18.179Z,44.50
2023-04-26T06:34:53.083Z,63.75
2023-04-26T06:35:26.348Z,67.90
2023-04-26T06:35:58.682Z,76.95
2023-04-26T06:36:33.526Z,102.10
2023-04-26T06:37:06.158Z,94.95
2023-04-26T06:37:39.115Z,75.47
2023-04-26T06:38:15.486Z,61.65
2023-04-26T06:38:47.790Z,66.60
2023-04-26T06:39:22.563Z,69.55
2023-04-26T06:39:54.767Z,83.28
2023-04-26T06:40:27.405Z,68.72
2023-04-26T06:41:02.214Z,71.03
2023-04-26T06:41:34.587Z,64.60
2023-04-26T06:42:06.846Z,131.80
2023-04-26T06:43:00.366Z,71.18
2023-04-26T06:43:47.436Z,63.88
2023-04-26T06:44:29.249Z,62.42
2023-04-26T06:45:09.250Z,72.93
2023-04-26T06:45:43.308Z,79.57
2023-04-26T06:46:20.001Z,92.97
2023-04-26T06:46:58.127Z,78.22
2023-04-26T06:47:33.905Z,90.43
2023-04-26T06:48:06.927Z,61.83
2023-04-26T06:48:42.025Z,84.47
2023-04-26T06:49:14.340Z,57.58
2023-04-26T06:49:46.515Z,74.75
2023-04-26T06:50:21.567Z,98.70
2023-04-26T06:50:53.761Z,48.45
2023-04-26T06:51:29.624Z,59.88
2023-04-26T06:52:01.982Z,35.20
2023-04-26T06:52:34.303Z,70.32
2023-04-26T06:53:09.213Z,47.05
2023-04-26T06:53:41.853Z,90.38
2023-04-26T06:54:16.697Z,67.82
2023-04-26T06:54:56.627Z,51.78
2023-04-26T06:55:33.693Z,56.30
2023-04-26T06:56:06.561Z,75.80
2023-04-26T06:56:38.753Z,61.75
2023-04-26T06:57:13.522Z,44.75
2023-04-26T06:57:45.983Z,53.65
2023-04-26T06:58:18.195Z,57.97
2023-04-26T06:59:06.434Z,58.15
2023-04-26T06:59:38.751Z,74.30
2023-04-26T07:00:15.003Z,79.00
2023-04-26T07:00:47.318Z,68.30
2023-04-26T07:01:22.123Z,44.92
2023-04-26T07:01:54.637Z,70.40
2023-04-26T07:02:26.985Z,72.68
2023-04-26T07:03:02.013Z,86.88
2023-04-26T07:03:34.826Z,95.47
2023-04-26T07:04:11.055Z,99.28
2023-04-26T07:04:44.444Z,86.75
2023-04-26T07:05:19.588Z,98.93
2023-04-26T07:05:51.812Z,95.63
2023-04-26T07:06:24.916Z,141.30
2023-04-26T07:06:59.864Z,111.00
2023-04-26T07:07:32.111Z,110.22
2023-04-26T07:08:07.016Z,95.43
2023-04-26T07:08:39.193Z,95.32
2023-04-26T07:09:11.456Z,137.93
2023-04-26T07:09:46.594Z,74.13
2023-04-26T07:10:18.811Z,78.97
2023-04-26T07:10:51.961Z,69.70
2023-04-26T07:11:26.808Z,80.90
2023-04-26T07:11:59.070Z,58.30
2023-04-26T07:12:33.901Z,79.65
2023-04-26T07:13:07.933Z,60.78
2023-04-26T07:13:41.627Z,113.28
2023-04-26T07:14:19.207Z,78.75
2023-04-26T07:14:51.441Z,70.80
2023-04-26T07:15:26.197Z,80.65
2023-04-26T07:15:58.598Z,61.85
2023-04-26T07:16:33.504Z,83.85
2023-04-26T07:17:05.890Z,72.35
2023-04-26T07:17:38.203Z,84.45
2023-04-26T07:18:13.161Z,65.50
2023-04-26T07:18:45.394Z,46.88
2023-04-26T07:19:18.089Z,61.63
2023-04-26T07:19:54.402Z,82.35
2023-04-26T07:20:27.778Z,91.63